sensor_id;sensor_type;location;lat;lon;timestamp;temperature;humidity
48768;DHT22;34933;40.968;14.538;2023-09-19T00:02:25;22.20;99.90
48768;DHT22;34933;40.968;14.538;2023-09-19T00:05:09;22.10;99.90
48768;DHT22;34933;40.968;14.538;2023-09-19T00:07:55;22.10;99.90
48768;DHT22;34933;40.968;14.538;2023-09-19T00:10:43;22.00;99.90
48768;DHT22;34933;40.968;14.538;2023-09-19T00:13:28;21.90;99.90
48768;DHT22;34933;40.968;14.538;2023-09-19T00:16:12;21.80;99.90
48768;DHT22;34933;40.968;14.538;2023-09-19T00:18:59;21.80;99.90
48768;DHT22;34933;40.968;14.538;2023-09-19T00:21:47;21.70;99.90
48768;DHT22;34933;40.968;14.538;2023-09-19T00:24:32;21.70;99.90
48768;DHT22;34933;40.968;14.538;2023-09-19T00:27:17;21.70;99.90
48768;DHT22;34933;40.968;14.538;2023-09-19T00:30:02;21.60;99.90
48768;DHT22;34933;40.968;14.538;2023-09-19T00:32:50;21.60;99.90
48768;DHT22;34933;40.968;14.538;2023-09-19T00:35:38;21.60;99.90
48768;DHT22;34933;40.968;14.538;2023-09-19T00:38:23;21.50;99.90
48768;DHT22;34933;40.968;14.538;2023-09-19T00:41:11;21.30;99.90
48768;DHT22;34933;40.968;14.538;2023-09-19T00:43:57;21.20;99.90
48768;DHT22;34933;40.968;14.538;2023-09-19T00:46:41;21.10;99.90
48768;DHT22;34933;40.968;14.538;2023-09-19T00:49:26;21.10;99.90
48768;DHT22;34933;40.968;14.538;2023-09-19T00:52:12;21.10;99.90
48768;DHT22;34933;40.968;14.538;2023-09-19T00:54:56;21.00;99.90
48768;DHT22;34933;40.968;14.538;2023-09-19T00:57:42;21.00;99.90
48768;DHT22;34933;40.968;14.538;2023-09-19T01:00:28;21.00;99.90
48768;DHT22;34933;40.968;14.538;2023-09-19T01:03:13;21.00;99.90
48768;DHT22;34933;40.968;14.538;2023-09-19T01:05:59;20.90;99.90
48768;DHT22;34933;40.968;14.538;2023-09-19T01:08:47;20.80;99.90
48768;DHT22;34933;40.968;14.538;2023-09-19T01:11:37;20.70;99.90
48768;DHT22;34933;40.968;14.538;2023-09-19T01:14:59;20.60;99.90
48768;DHT22;34933;40.968;14.538;2023-09-19T01:17:59;20.50;99.90
48768;DHT22;34933;40.968;14.538;2023-09-19T01:30:32;20.40;99.90
48768;DHT22;34933;40.968;14.538;2023-09-19T01:33:17;20.30;99.90
48768;DHT22;34933;40.968;14.538;2023-09-19T01:36:02;20.30;99.90
48768;DHT22;34933;40.968;14.538;2023-09-19T01:38:47;20.20;99.90
48768;DHT22;34933;40.968;14.538;2023-09-19T01:44:59;20.20;99.90
48768;DHT22;34933;40.968;14.538;2023-09-19T01:47:52;20.20;99.90
48768;DHT22;34933;40.968;14.538;2023-09-19T01:51:06;20.00;99.90
48768;DHT22;34933;40.968;14.538;2023-09-19T01:54:01;20.00;99.90
48768;DHT22;34933;40.968;14.538;2023-09-19T01:57:01;20.00;99.90
48768;DHT22;34933;40.968;14.538;2023-09-19T01:59:52;20.00;99.90
48768;DHT22;34933;40.968;14.538;2023-09-19T02:02:40;20.00;99.90
48768;DHT22;34933;40.968;14.538;2023-09-19T02:05:26;20.00;99.90
48768;DHT22;34933;40.968;14.538;2023-09-19T02:08:19;20.00;99.90
48768;DHT22;34933;40.968;14.538;2023-09-19T02:11:04;20.00;99.90
48768;DHT22;34933;40.968;14.538;2023-09-19T02:13:48;20.00;99.90
48768;DHT22;34933;40.968;14.538;2023-09-19T02:16:38;19.90;99.90
48768;DHT22;34933;40.968;14.538;2023-09-19T02:19:23;19.80;99.90
48768;DHT22;34933;40.968;14.538;2023-09-19T02:22:07;19.80;99.90
48768;DHT22;34933;40.968;14.538;2023-09-19T02:24:54;19.80;99.90
48768;DHT22;34933;40.968;14.538;2023-09-19T02:27:38;19.70;99.90
48768;DHT22;34933;40.968;14.538;2023-09-19T02:30:26;19.70;99.90
48768;DHT22;34933;40.968;14.538;2023-09-19T02:33:11;19.70;99.90
48768;DHT22;34933;40.968;14.538;2023-09-19T02:35:56;19.70;99.90
48768;DHT22;34933;40.968;14.538;2023-09-19T02:38:46;19.80;99.90
48768;DHT22;34933;40.968;14.538;2023-09-19T02:41:30;19.70;99.90
48768;DHT22;34933;40.968;14.538;2023-09-19T02:44:17;19.70;99.90
48768;DHT22;34933;40.968;14.538;2023-09-19T02:47:04;19.60;99.90
48768;DHT22;34933;40.968;14.538;2023-09-19T02:49:49;19.60;99.90
48768;DHT22;34933;40.968;14.538;2023-09-19T02:52:33;19.60;99.90
48768;DHT22;34933;40.968;14.538;2023-09-19T02:55:19;19.60;99.90
48768;DHT22;34933;40.968;14.538;2023-09-19T02:58:03;19.60;99.90
48768;DHT22;34933;40.968;14.538;2023-09-19T03:00:49;19.50;99.90
48768;DHT22;34933;40.968;14.538;2023-09-19T03:03:35;19.50;99.90
48768;DHT22;34933;40.968;14.538;2023-09-19T03:06:21;19.50;99.90
48768;DHT22;34933;40.968;14.538;2023-09-19T03:09:08;19.50;99.90
48768;DHT22;34933;40.968;14.538;2023-09-19T03:11:58;19.60;99.90
48768;DHT22;34933;40.968;14.538;2023-09-19T03:14:44;19.50;99.90
48768;DHT22;34933;40.968;14.538;2023-09-19T03:17:29;19.50;99.90
48768;DHT22;34933;40.968;14.538;2023-09-19T03:20:14;19.40;99.90
48768;DHT22;34933;40.968;14.538;2023-09-19T03:23:01;19.40;99.90
48768;DHT22;34933;40.968;14.538;2023-09-19T03:25:47;19.40;99.90
48768;DHT22;34933;40.968;14.538;2023-09-19T03:28:34;19.30;99.90
48768;DHT22;34933;40.968;14.538;2023-09-19T03:31:19;19.30;99.90
48768;DHT22;34933;40.968;14.538;2023-09-19T03:34:05;19.40;99.90
48768;DHT22;34933;40.968;14.538;2023-09-19T03:36:49;19.40;99.90
48768;DHT22;34933;40.968;14.538;2023-09-19T03:39:34;19.40;99.90
48768;DHT22;34933;40.968;14.538;2023-09-19T03:42:19;19.40;99.90
48768;DHT22;34933;40.968;14.538;2023-09-19T03:45:10;19.30;99.90
48768;DHT22;34933;40.968;14.538;2023-09-19T03:48:09;19.30;99.90
48768;DHT22;34933;40.968;14.538;2023-09-19T03:50:53;19.30;99.90
48768;DHT22;34933;40.968;14.538;2023-09-19T03:53:41;19.20;99.90
48768;DHT22;34933;40.968;14.538;2023-09-19T03:56:26;19.10;99.90
48768;DHT22;34933;40.968;14.538;2023-09-19T03:59:10;19.20;99.90
48768;DHT22;34933;40.968;14.538;2023-09-19T04:01:56;19.20;99.90
48768;DHT22;34933;40.968;14.538;2023-09-19T04:04:42;19.20;99.90
48768;DHT22;34933;40.968;14.538;2023-09-19T04:07:27;19.20;99.90
48768;DHT22;34933;40.968;14.538;2023-09-19T04:10:13;19.20;99.90
48768;DHT22;34933;40.968;14.538;2023-09-19T04:12:58;19.20;99.90
48768;DHT22;34933;40.968;14.538;2023-09-19T04:15:43;19.20;99.90
48768;DHT22;34933;40.968;14.538;2023-09-19T04:18:31;19.20;99.90
48768;DHT22;34933;40.968;14.538;2023-09-19T04:21:18;19.20;99.90
48768;DHT22;34933;40.968;14.538;2023-09-19T04:24:03;19.30;99.90
48768;DHT22;34933;40.968;14.538;2023-09-19T04:26:48;19.20;99.90
48768;DHT22;34933;40.968;14.538;2023-09-19T04:29:33;19.20;99.90
48768;DHT22;34933;40.968;14.538;2023-09-19T04:32:17;19.10;99.90
48768;DHT22;34933;40.968;14.538;2023-09-19T04:35:02;19.10;99.90
48768;DHT22;34933;40.968;14.538;2023-09-19T04:37:50;19.00;99.90
48768;DHT22;34933;40.968;14.538;2023-09-19T04:40:35;18.90;99.90
48768;DHT22;34933;40.968;14.538;2023-09-19T04:43:20;18.90;99.90
48768;DHT22;34933;40.968;14.538;2023-09-19T04:46:04;18.80;99.90
48768;DHT22;34933;40.968;14.538;2023-09-19T04:48:51;18.80;99.90
48768;DHT22;34933;40.968;14.538;2023-09-19T04:51:35;18.80;99.90
48768;DHT22;34933;40.968;14.538;2023-09-19T04:54:20;18.70;99.90
48768;DHT22;34933;40.968;14.538;2023-09-19T04:57:06;18.80;99.90
48768;DHT22;34933;40.968;14.538;2023-09-19T04:59:50;18.80;99.90
48768;DHT22;34933;40.968;14.538;2023-09-19T05:02:35;18.80;99.90
48768;DHT22;34933;40.968;14.538;2023-09-19T05:05:20;18.80;99.90
48768;DHT22;34933;40.968;14.538;2023-09-19T05:08:05;18.80;99.90
48768;DHT22;34933;40.968;14.538;2023-09-19T05:10:49;19.10;99.90
48768;DHT22;34933;40.968;14.538;2023-09-19T05:13:35;19.40;99.90
48768;DHT22;34933;40.968;14.538;2023-09-19T05:16:19;19.70;99.90
48768;DHT22;34933;40.968;14.538;2023-09-19T05:19:05;19.90;99.90
48768;DHT22;34933;40.968;14.538;2023-09-19T05:21:50;19.90;99.90
48768;DHT22;34933;40.968;14.538;2023-09-19T05:24:34;20.10;99.90
48768;DHT22;34933;40.968;14.538;2023-09-19T05:27:19;20.20;99.90
48768;DHT22;34933;40.968;14.538;2023-09-19T05:30:05;20.30;99.90
48768;DHT22;34933;40.968;14.538;2023-09-19T05:32:51;20.50;99.90
48768;DHT22;34933;40.968;14.538;2023-09-19T05:35:36;20.60;99.90
48768;DHT22;34933;40.968;14.538;2023-09-19T05:38:26;20.80;99.90
48768;DHT22;34933;40.968;14.538;2023-09-19T05:41:11;20.90;99.90
48768;DHT22;34933;40.968;14.538;2023-09-19T05:43:57;21.00;99.90
48768;DHT22;34933;40.968;14.538;2023-09-19T05:46:43;21.10;99.90
48768;DHT22;34933;40.968;14.538;2023-09-19T05:49:30;21.20;99.90
48768;DHT22;34933;40.968;14.538;2023-09-19T05:52:15;21.20;99.90
48768;DHT22;34933;40.968;14.538;2023-09-19T05:55:01;21.30;99.90
48768;DHT22;34933;40.968;14.538;2023-09-19T05:57:54;21.40;99.90
48768;DHT22;34933;40.968;14.538;2023-09-19T06:00:39;21.50;99.90
48768;DHT22;34933;40.968;14.538;2023-09-19T06:03:27;21.60;99.90
48768;DHT22;34933;40.968;14.538;2023-09-19T06:06:13;21.70;99.90
48768;DHT22;34933;40.968;14.538;2023-09-19T06:08:58;21.80;99.90
48768;DHT22;34933;40.968;14.538;2023-09-19T06:11:43;22.00;99.90
48768;DHT22;34933;40.968;14.538;2023-09-19T06:14:27;22.10;99.00
48768;DHT22;34933;40.968;14.538;2023-09-19T06:17:12;22.30;98.60
48768;DHT22;34933;40.968;14.538;2023-09-19T06:19:57;22.40;98.30
48768;DHT22;34933;40.968;14.538;2023-09-19T06:22:42;22.70;98.20
48768;DHT22;34933;40.968;14.538;2023-09-19T06:25:27;22.90;98.20
48768;DHT22;34933;40.968;14.538;2023-09-19T06:28:11;23.10;98.20
48768;DHT22;34933;40.968;14.538;2023-09-19T06:30:56;23.30;97.90
48768;DHT22;34933;40.968;14.538;2023-09-19T06:33:41;23.60;98.00
48768;DHT22;34933;40.968;14.538;2023-09-19T06:36:27;23.80;98.00
48768;DHT22;34933;40.968;14.538;2023-09-19T06:39:11;23.90;97.80
48768;DHT22;34933;40.968;14.538;2023-09-19T06:41:56;24.10;97.10
48768;DHT22;34933;40.968;14.538;2023-09-19T06:44:40;24.20;98.10
48768;DHT22;34933;40.968;14.538;2023-09-19T06:47:25;24.30;99.60
48768;DHT22;34933;40.968;14.538;2023-09-19T06:50:10;24.20;99.20
48768;DHT22;34933;40.968;14.538;2023-09-19T06:52:57;24.30;98.90
48768;DHT22;34933;40.968;14.538;2023-09-19T06:55:44;24.30;99.00
48768;DHT22;34933;40.968;14.538;2023-09-19T06:58:29;24.30;99.30
48768;DHT22;34933;40.968;14.538;2023-09-19T07:01:15;24.40;99.30
48768;DHT22;34933;40.968;14.538;2023-09-19T07:04:00;24.60;99.30
48768;DHT22;34933;40.968;14.538;2023-09-19T07:06:49;24.80;99.20
48768;DHT22;34933;40.968;14.538;2023-09-19T07:09:34;24.90;99.10
48768;DHT22;34933;40.968;14.538;2023-09-19T07:12:18;25.10;98.50
48768;DHT22;34933;40.968;14.538;2023-09-19T07:15:04;25.20;97.90
48768;DHT22;34933;40.968;14.538;2023-09-19T07:17:50;25.30;97.80
48768;DHT22;34933;40.968;14.538;2023-09-19T07:20:34;25.50;98.00
48768;DHT22;34933;40.968;14.538;2023-09-19T07:23:19;25.40;98.40
48768;DHT22;34933;40.968;14.538;2023-09-19T07:26:06;25.40;98.10
48768;DHT22;34933;40.968;14.538;2023-09-19T07:28:50;25.40;97.90
48768;DHT22;34933;40.968;14.538;2023-09-19T07:31:37;25.50;98.10
48768;DHT22;34933;40.968;14.538;2023-09-19T07:34:22;25.60;98.30
48768;DHT22;34933;40.968;14.538;2023-09-19T07:37:08;25.80;98.30
48768;DHT22;34933;40.968;14.538;2023-09-19T07:39:54;25.80;98.20
48768;DHT22;34933;40.968;14.538;2023-09-19T07:42:38;25.90;98.00
48768;DHT22;34933;40.968;14.538;2023-09-19T07:45:24;26.00;97.60
48768;DHT22;34933;40.968;14.538;2023-09-19T07:48:09;26.10;98.30
48768;DHT22;34933;40.968;14.538;2023-09-19T07:51:02;26.20;97.70
48768;DHT22;34933;40.968;14.538;2023-09-19T07:53:48;26.30;97.60
48768;DHT22;34933;40.968;14.538;2023-09-19T07:56:33;26.40;98.20
48768;DHT22;34933;40.968;14.538;2023-09-19T07:59:18;26.50;98.10
48768;DHT22;34933;40.968;14.538;2023-09-19T08:02:02;26.60;98.20
48768;DHT22;34933;40.968;14.538;2023-09-19T08:04:49;26.70;98.10
48768;DHT22;34933;40.968;14.538;2023-09-19T08:07:33;26.80;98.00
48768;DHT22;34933;40.968;14.538;2023-09-19T08:10:18;27.00;97.80
48768;DHT22;34933;40.968;14.538;2023-09-19T08:13:03;27.10;97.30
48768;DHT22;34933;40.968;14.538;2023-09-19T08:15:48;27.20;96.90
48768;DHT22;34933;40.968;14.538;2023-09-19T08:18:37;27.30;96.30
48768;DHT22;34933;40.968;14.538;2023-09-19T08:21:24;27.40;96.50
48768;DHT22;34933;40.968;14.538;2023-09-19T08:24:09;27.60;96.60
48768;DHT22;34933;40.968;14.538;2023-09-19T08:26:57;27.70;96.50
48768;DHT22;34933;40.968;14.538;2023-09-19T08:29:42;27.90;96.40
48768;DHT22;34933;40.968;14.538;2023-09-19T08:32:28;28.00;95.70
48768;DHT22;34933;40.968;14.538;2023-09-19T08:35:13;28.00;96.00
48768;DHT22;34933;40.968;14.538;2023-09-19T08:37:58;28.10;95.90
48768;DHT22;34933;40.968;14.538;2023-09-19T08:40:48;28.10;95.90
48768;DHT22;34933;40.968;14.538;2023-09-19T08:43:32;28.30;95.80
48768;DHT22;34933;40.968;14.538;2023-09-19T08:46:18;28.30;95.90
48768;DHT22;34933;40.968;14.538;2023-09-19T08:49:05;28.40;96.00
48768;DHT22;34933;40.968;14.538;2023-09-19T08:52:01;28.40;95.80
48768;DHT22;34933;40.968;14.538;2023-09-19T08:54:52;28.20;94.70
48768;DHT22;34933;40.968;14.538;2023-09-19T08:57:38;28.10;94.60
48768;DHT22;34933;40.968;14.538;2023-09-19T09:00:27;28.00;94.10
48768;DHT22;34933;40.968;14.538;2023-09-19T09:03:13;28.10;94.90
48768;DHT22;34933;40.968;14.538;2023-09-19T09:05:59;28.20;94.00
48768;DHT22;34933;40.968;14.538;2023-09-19T09:08:44;28.20;94.20
48768;DHT22;34933;40.968;14.538;2023-09-19T09:11:32;28.20;94.30
48768;DHT22;34933;40.968;14.538;2023-09-19T09:14:19;28.00;94.60
48768;DHT22;34933;40.968;14.538;2023-09-19T09:17:05;28.00;95.00
48768;DHT22;34933;40.968;14.538;2023-09-19T09:19:52;28.00;95.20
48768;DHT22;34933;40.968;14.538;2023-09-19T09:22:38;28.00;95.80
48768;DHT22;34933;40.968;14.538;2023-09-19T09:25:54;28.00;95.60
48768;DHT22;34933;40.968;14.538;2023-09-19T09:28:45;28.10;94.80
48768;DHT22;34933;40.968;14.538;2023-09-19T09:31:30;28.20;94.40
48768;DHT22;34933;40.968;14.538;2023-09-19T09:34:16;28.40;94.40
48768;DHT22;34933;40.968;14.538;2023-09-19T09:37:01;28.60;93.50
48768;DHT22;34933;40.968;14.538;2023-09-19T09:39:53;28.90;93.60
48768;DHT22;34933;40.968;14.538;2023-09-19T09:42:38;28.80;93.40
48768;DHT22;34933;40.968;14.538;2023-09-19T09:45:24;29.00;93.40
48768;DHT22;34933;40.968;14.538;2023-09-19T09:48:29;29.00;92.90
48768;DHT22;34933;40.968;14.538;2023-09-19T09:51:28;28.90;93.00
48768;DHT22;34933;40.968;14.538;2023-09-19T09:54:16;29.10;93.60
48768;DHT22;34933;40.968;14.538;2023-09-19T09:57:09;29.30;93.60
48768;DHT22;34933;40.968;14.538;2023-09-19T10:00:10;29.90;93.40
48768;DHT22;34933;40.968;14.538;2023-09-19T10:02:56;29.90;93.10
48768;DHT22;34933;40.968;14.538;2023-09-19T10:05:44;30.30;92.80
48768;DHT22;34933;40.968;14.538;2023-09-19T10:08:30;30.70;92.80
48768;DHT22;34933;40.968;14.538;2023-09-19T10:11:16;31.00;92.50
48768;DHT22;34933;40.968;14.538;2023-09-19T10:14:01;31.10;92.10
48768;DHT22;34933;40.968;14.538;2023-09-19T10:16:48;31.00;91.90
48768;DHT22;34933;40.968;14.538;2023-09-19T10:19:37;30.90;91.90
48768;DHT22;34933;40.968;14.538;2023-09-19T10:22:29;30.80;92.20
48768;DHT22;34933;40.968;14.538;2023-09-19T10:25:16;30.80;92.20
48768;DHT22;34933;40.968;14.538;2023-09-19T10:28:11;30.90;90.90
48768;DHT22;34933;40.968;14.538;2023-09-19T10:30:57;30.50;91.10
48768;DHT22;34933;40.968;14.538;2023-09-19T10:33:44;30.40;91.30
48768;DHT22;34933;40.968;14.538;2023-09-19T10:36:32;30.40;91.10
48768;DHT22;34933;40.968;14.538;2023-09-19T10:39:19;30.60;90.00
48768;DHT22;34933;40.968;14.538;2023-09-19T10:42:06;30.70;88.80
48768;DHT22;34933;40.968;14.538;2023-09-19T10:44:53;30.60;90.80
48768;DHT22;34933;40.968;14.538;2023-09-19T10:47:38;30.70;89.60
48768;DHT22;34933;40.968;14.538;2023-09-19T10:50:23;30.50;87.10
48768;DHT22;34933;40.968;14.538;2023-09-19T10:53:08;30.60;85.90
48768;DHT22;34933;40.968;14.538;2023-09-19T10:55:59;30.90;84.20
48768;DHT22;34933;40.968;14.538;2023-09-19T10:59:11;31.40;84.80
48768;DHT22;34933;40.968;14.538;2023-09-19T11:01:57;31.80;84.30
48768;DHT22;34933;40.968;14.538;2023-09-19T11:04:41;31.90;84.20
48768;DHT22;34933;40.968;14.538;2023-09-19T11:07:27;31.80;83.60
48768;DHT22;34933;40.968;14.538;2023-09-19T11:10:44;32.00;82.90
48768;DHT22;34933;40.968;14.538;2023-09-19T11:13:30;31.90;84.40
48768;DHT22;34933;40.968;14.538;2023-09-19T11:16:22;31.70;85.70
48768;DHT22;34933;40.968;14.538;2023-09-19T11:19:08;31.60;84.20
48768;DHT22;34933;40.968;14.538;2023-09-19T11:21:55;31.70;83.70
48768;DHT22;34933;40.968;14.538;2023-09-19T11:24:40;31.60;84.70
48768;DHT22;34933;40.968;14.538;2023-09-19T11:27:26;31.60;84.40
48768;DHT22;34933;40.968;14.538;2023-09-19T11:30:27;31.70;84.50
48768;DHT22;34933;40.968;14.538;2023-09-19T11:33:22;32.30;83.80
48768;DHT22;34933;40.968;14.538;2023-09-19T11:36:16;32.50;80.70
48768;DHT22;34933;40.968;14.538;2023-09-19T11:39:03;32.90;81.90
48768;DHT22;34933;40.968;14.538;2023-09-19T11:41:53;33.30;82.40
48768;DHT22;34933;40.968;14.538;2023-09-19T11:44:41;33.50;81.70
48768;DHT22;34933;40.968;14.538;2023-09-19T11:47:27;33.70;81.50
48768;DHT22;34933;40.968;14.538;2023-09-19T11:50:18;34.00;80.70
48768;DHT22;34933;40.968;14.538;2023-09-19T11:53:05;33.90;81.80
48768;DHT22;34933;40.968;14.538;2023-09-19T11:55:50;33.80;80.20
48768;DHT22;34933;40.968;14.538;2023-09-19T11:58:37;34.30;80.30
48768;DHT22;34933;40.968;14.538;2023-09-19T12:01:33;34.80;78.70
48768;DHT22;34933;40.968;14.538;2023-09-19T12:04:36;35.40;77.70
48768;DHT22;34933;40.968;14.538;2023-09-19T12:07:22;36.50;75.70
48768;DHT22;34933;40.968;14.538;2023-09-19T12:10:07;37.20;75.90
48768;DHT22;34933;40.968;14.538;2023-09-19T12:12:56;37.70;75.90
48768;DHT22;34933;40.968;14.538;2023-09-19T12:15:41;38.60;75.90
48768;DHT22;34933;40.968;14.538;2023-09-19T12:18:30;38.50;76.30
48768;DHT22;34933;40.968;14.538;2023-09-19T12:21:34;38.80;76.90
48768;DHT22;34933;40.968;14.538;2023-09-19T12:24:21;39.10;73.70
48768;DHT22;34933;40.968;14.538;2023-09-19T12:27:07;38.60;73.80
48768;DHT22;34933;40.968;14.538;2023-09-19T12:29:51;38.40;73.50
48768;DHT22;34933;40.968;14.538;2023-09-19T12:32:40;38.20;73.50
48768;DHT22;34933;40.968;14.538;2023-09-19T12:35:31;38.60;73.50
48768;DHT22;34933;40.968;14.538;2023-09-19T12:38:28;38.50;74.00
48768;DHT22;34933;40.968;14.538;2023-09-19T12:41:13;38.40;74.70
48768;DHT22;34933;40.968;14.538;2023-09-19T12:43:57;38.90;74.10
48768;DHT22;34933;40.968;14.538;2023-09-19T12:46:44;38.90;74.00
48768;DHT22;34933;40.968;14.538;2023-09-19T12:49:29;39.20;74.30
48768;DHT22;34933;40.968;14.538;2023-09-19T12:52:14;40.00;74.30
48768;DHT22;34933;40.968;14.538;2023-09-19T12:55:00;40.10;73.60
48768;DHT22;34933;40.968;14.538;2023-09-19T13:00:53;40.60;74.20
48768;DHT22;34933;40.968;14.538;2023-09-19T13:03:40;41.00;73.30
48768;DHT22;34933;40.968;14.538;2023-09-19T13:06:37;40.90;72.40
48768;DHT22;34933;40.968;14.538;2023-09-19T13:09:27;40.80;73.70
48768;DHT22;34933;40.968;14.538;2023-09-19T13:12:36;40.70;71.70
48768;DHT22;34933;40.968;14.538;2023-09-19T13:15:21;40.40;72.90
48768;DHT22;34933;40.968;14.538;2023-09-19T13:18:11;40.90;73.20
48768;DHT22;34933;40.968;14.538;2023-09-19T13:21:07;41.60;71.60
48768;DHT22;34933;40.968;14.538;2023-09-19T13:24:23;41.80;72.20
48768;DHT22;34933;40.968;14.538;2023-09-19T13:27:12;40.70;72.80
48768;DHT22;34933;40.968;14.538;2023-09-19T13:29:58;40.70;73.20
48768;DHT22;34933;40.968;14.538;2023-09-19T13:32:42;40.30;74.20
48768;DHT22;34933;40.968;14.538;2023-09-19T13:35:27;40.10;74.20
48768;DHT22;34933;40.968;14.538;2023-09-19T13:38:12;40.50;74.10
48768;DHT22;34933;40.968;14.538;2023-09-19T13:40:57;40.70;74.60
48768;DHT22;34933;40.968;14.538;2023-09-19T13:43:44;41.40;75.20
48768;DHT22;34933;40.968;14.538;2023-09-19T13:46:32;40.80;75.30
48768;DHT22;34933;40.968;14.538;2023-09-19T13:49:19;39.80;75.60
48768;DHT22;34933;40.968;14.538;2023-09-19T13:52:04;39.30;76.40
48768;DHT22;34933;40.968;14.538;2023-09-19T13:54:50;39.30;76.20
48768;DHT22;34933;40.968;14.538;2023-09-19T13:57:35;38.50;76.90
48768;DHT22;34933;40.968;14.538;2023-09-19T14:00:20;38.60;77.20
48768;DHT22;34933;40.968;14.538;2023-09-19T14:03:04;37.90;77.30
48768;DHT22;34933;40.968;14.538;2023-09-19T14:05:49;38.00;77.60
48768;DHT22;34933;40.968;14.538;2023-09-19T14:08:35;38.40;77.10
48768;DHT22;34933;40.968;14.538;2023-09-19T14:11:20;39.00;77.10
48768;DHT22;34933;40.968;14.538;2023-09-19T14:14:05;39.20;77.20
48768;DHT22;34933;40.968;14.538;2023-09-19T14:16:50;39.40;77.20
48768;DHT22;34933;40.968;14.538;2023-09-19T14:19:36;39.00;77.20
48768;DHT22;34933;40.968;14.538;2023-09-19T14:22:21;38.80;78.20
48768;DHT22;34933;40.968;14.538;2023-09-19T14:25:06;37.80;79.90
48768;DHT22;34933;40.968;14.538;2023-09-19T14:27:50;37.80;80.90
48768;DHT22;34933;40.968;14.538;2023-09-19T14:30:35;37.70;81.30
48768;DHT22;34933;40.968;14.538;2023-09-19T14:33:21;37.30;81.60
48768;DHT22;34933;40.968;14.538;2023-09-19T14:36:08;37.00;82.00
48768;DHT22;34933;40.968;14.538;2023-09-19T14:38:55;37.00;83.10
48768;DHT22;34933;40.968;14.538;2023-09-19T14:41:40;36.70;84.30
48768;DHT22;34933;40.968;14.538;2023-09-19T14:44:26;37.40;81.70
48768;DHT22;34933;40.968;14.538;2023-09-19T14:47:12;37.70;83.60
48768;DHT22;34933;40.968;14.538;2023-09-19T14:49:57;37.90;83.60
48768;DHT22;34933;40.968;14.538;2023-09-19T14:52:42;37.50;84.60
48768;DHT22;34933;40.968;14.538;2023-09-19T14:55:28;37.20;84.80
48768;DHT22;34933;40.968;14.538;2023-09-19T14:58:14;36.40;86.40
48768;DHT22;34933;40.968;14.538;2023-09-19T15:01:13;36.30;86.90
48768;DHT22;34933;40.968;14.538;2023-09-19T15:03:57;36.10;87.80
48768;DHT22;34933;40.968;14.538;2023-09-19T15:06:42;36.10;87.40
48768;DHT22;34933;40.968;14.538;2023-09-19T15:09:26;35.50;88.30
48768;DHT22;34933;40.968;14.538;2023-09-19T15:12:11;36.00;88.00
48768;DHT22;34933;40.968;14.538;2023-09-19T15:14:58;35.50;88.00
48768;DHT22;34933;40.968;14.538;2023-09-19T15:17:43;35.40;88.00
48768;DHT22;34933;40.968;14.538;2023-09-19T15:20:28;34.80;88.90
48768;DHT22;34933;40.968;14.538;2023-09-19T15:23:13;34.70;89.10
48768;DHT22;34933;40.968;14.538;2023-09-19T15:25:58;34.60;88.50
48768;DHT22;34933;40.968;14.538;2023-09-19T15:28:42;34.90;88.70
48768;DHT22;34933;40.968;14.538;2023-09-19T15:31:27;35.20;88.00
48768;DHT22;34933;40.968;14.538;2023-09-19T15:34:12;34.50;89.50
48768;DHT22;34933;40.968;14.538;2023-09-19T15:37:00;34.80;89.50
48768;DHT22;34933;40.968;14.538;2023-09-19T15:39:45;35.20;89.20
48768;DHT22;34933;40.968;14.538;2023-09-19T15:42:30;34.70;89.80
48768;DHT22;34933;40.968;14.538;2023-09-19T15:45:15;34.70;89.40
48768;DHT22;34933;40.968;14.538;2023-09-19T15:48:00;34.20;90.20
48768;DHT22;34933;40.968;14.538;2023-09-19T15:50:46;34.00;90.10
48768;DHT22;34933;40.968;14.538;2023-09-19T15:53:50;33.70;90.20
48768;DHT22;34933;40.968;14.538;2023-09-19T15:56:35;33.40;90.50
48768;DHT22;34933;40.968;14.538;2023-09-19T16:02:14;32.90;90.80
48768;DHT22;34933;40.968;14.538;2023-09-19T16:04:58;32.80;91.10
48768;DHT22;34933;40.968;14.538;2023-09-19T16:07:43;32.70;91.40
48768;DHT22;34933;40.968;14.538;2023-09-19T16:10:28;32.30;91.70
48768;DHT22;34933;40.968;14.538;2023-09-19T16:13:13;31.80;92.10
48768;DHT22;34933;40.968;14.538;2023-09-19T16:15:58;31.60;92.40
48768;DHT22;34933;40.968;14.538;2023-09-19T16:18:46;31.30;92.60
48768;DHT22;34933;40.968;14.538;2023-09-19T16:21:34;30.90;93.10
48768;DHT22;34933;40.968;14.538;2023-09-19T16:24:19;30.50;93.60
48768;DHT22;34933;40.968;14.538;2023-09-19T16:27:04;30.10;94.10
48768;DHT22;34933;40.968;14.538;2023-09-19T16:29:50;29.90;94.40
48768;DHT22;34933;40.968;14.538;2023-09-19T16:32:34;29.70;94.80
48768;DHT22;34933;40.968;14.538;2023-09-19T16:35:20;29.50;95.30
48768;DHT22;34933;40.968;14.538;2023-09-19T16:38:04;29.30;95.70
48768;DHT22;34933;40.968;14.538;2023-09-19T16:40:53;29.10;96.00
48768;DHT22;34933;40.968;14.538;2023-09-19T16:43:38;29.00;96.40
48768;DHT22;34933;40.968;14.538;2023-09-19T16:46:24;28.90;96.40
48768;DHT22;34933;40.968;14.538;2023-09-19T16:49:09;28.70;96.80
48768;DHT22;34933;40.968;14.538;2023-09-19T16:51:53;28.60;97.20
48768;DHT22;34933;40.968;14.538;2023-09-19T16:54:38;28.60;97.30
48768;DHT22;34933;40.968;14.538;2023-09-19T16:57:23;28.50;97.70
48768;DHT22;34933;40.968;14.538;2023-09-19T17:00:09;28.30;98.00
48768;DHT22;34933;40.968;14.538;2023-09-19T17:02:55;28.10;98.70
48768;DHT22;34933;40.968;14.538;2023-09-19T17:05:41;28.00;99.00
48768;DHT22;34933;40.968;14.538;2023-09-19T17:08:26;27.80;99.30
48768;DHT22;34933;40.968;14.538;2023-09-19T17:11:16;27.70;99.60
48768;DHT22;34933;40.968;14.538;2023-09-19T17:14:01;27.50;99.90
48768;DHT22;34933;40.968;14.538;2023-09-19T17:16:47;27.30;99.90
48768;DHT22;34933;40.968;14.538;2023-09-19T17:19:33;27.20;99.90
48768;DHT22;34933;40.968;14.538;2023-09-19T17:22:18;27.20;99.90
48768;DHT22;34933;40.968;14.538;2023-09-19T17:25:04;27.10;99.90
48768;DHT22;34933;40.968;14.538;2023-09-19T17:27:48;27.00;99.90
48768;DHT22;34933;40.968;14.538;2023-09-19T17:30:33;26.90;99.90
48768;DHT22;34933;40.968;14.538;2023-09-19T17:33:20;26.90;99.90
48768;DHT22;34933;40.968;14.538;2023-09-19T17:36:08;26.80;99.90
48768;DHT22;34933;40.968;14.538;2023-09-19T17:38:55;26.60;99.90